sensor_id;sensor_type;location;lat;lon;timestamp;pressure;altitude;pressure_sealevel;temperature;humidity
12963;BME280;6546;49.882;8.666;2023-05-23T00:01:03;99848.47;;;19.73;71.31
12963;BME280;6546;49.882;8.666;2023-05-23T00:03:32;99856.81;;;19.70;71.13
12963;BME280;6546;49.882;8.666;2023-05-23T00:06:00;99850.66;;;19.64;71.56
12963;BME280;6546;49.882;8.666;2023-05-23T00:08:26;99851.53;;;19.58;71.77
12963;BME280;6546;49.882;8.666;2023-05-23T00:10:53;99852.78;;;19.56;72.00
12963;BME280;6546;49.882;8.666;2023-05-23T00:13:20;99856.09;;;19.51;72.39
12963;BME280;6546;49.882;8.666;2023-05-23T00:15:46;99853.94;;;19.48;72.30
12963;BME280;6546;49.882;8.666;2023-05-23T00:18:14;99847.50;;;19.44;72.67
12963;BME280;6546;49.882;8.666;2023-05-23T00:20:41;99850.34;;;19.43;72.44
12963;BME280;6546;49.882;8.666;2023-05-23T00:23:08;99845.16;;;19.36;72.38
12963;BME280;6546;49.882;8.666;2023-05-23T00:25:35;99858.28;;;19.36;72.61
12963;BME280;6546;49.882;8.666;2023-05-23T00:28:03;99856.72;;;19.35;72.58
12963;BME280;6546;49.882;8.666;2023-05-23T00:30:31;99857.06;;;19.38;72.11
12963;BME280;6546;49.882;8.666;2023-05-23T00:32:58;99849.41;;;19.37;72.15
12963;BME280;6546;49.882;8.666;2023-05-23T00:35:26;99853.03;;;19.36;72.47
12963;BME280;6546;49.882;8.666;2023-05-23T00:37:53;99853.13;;;19.29;72.28
12963;BME280;6546;49.882;8.666;2023-05-23T00:40:20;99859.06;;;19.25;72.84
12963;BME280;6546;49.882;8.666;2023-05-23T00:42:47;99851.28;;;19.18;73.13
12963;BME280;6546;49.882;8.666;2023-05-23T00:45:14;99855.72;;;19.18;73.16
12963;BME280;6546;49.882;8.666;2023-05-23T00:47:42;99849.69;;;19.17;73.03
12963;BME280;6546;49.882;8.666;2023-05-23T00:50:11;99852.53;;;19.16;73.30
12963;BME280;6546;49.882;8.666;2023-05-23T00:52:41;99856.19;;;19.15;73.21
12963;BME280;6546;49.882;8.666;2023-05-23T00:55:08;99859.81;;;19.14;73.14
12963;BME280;6546;49.882;8.666;2023-05-23T00:57:35;99855.47;;;19.08;73.21
12963;BME280;6546;49.882;8.666;2023-05-23T01:00:05;99862.53;;;19.07;73.12
12963;BME280;6546;49.882;8.666;2023-05-23T01:02:37;99863.56;;;19.06;73.33
12963;BME280;6546;49.882;8.666;2023-05-23T01:05:06;99872.47;;;19.05;73.09
12963;BME280;6546;49.882;8.666;2023-05-23T01:07:32;99871.09;;;19.03;73.46
12963;BME280;6546;49.882;8.666;2023-05-23T01:10:01;99872.66;;;19.04;73.50
12963;BME280;6546;49.882;8.666;2023-05-23T01:12:33;99874.16;;;19.00;73.14
12963;BME280;6546;49.882;8.666;2023-05-23T01:15:06;99873.56;;;18.98;73.33
12963;BME280;6546;49.882;8.666;2023-05-23T01:17:43;99875.59;;;18.96;73.73
12963;BME280;6546;49.882;8.666;2023-05-23T01:20:13;99876.63;;;18.95;73.47
12963;BME280;6546;49.882;8.666;2023-05-23T01:23:23;99880.25;;;18.94;73.43
12963;BME280;6546;49.882;8.666;2023-05-23T01:26:03;99874.88;;;18.88;73.34
12963;BME280;6546;49.882;8.666;2023-05-23T01:28:36;99879.69;;;18.92;73.00
12963;BME280;6546;49.882;8.666;2023-05-23T01:31:07;99880.69;;;18.91;73.00
12963;BME280;6546;49.882;8.666;2023-05-23T01:33:37;99882.75;;;18.88;73.29
12963;BME280;6546;49.882;8.666;2023-05-23T01:36:04;99883.91;;;18.93;72.92
12963;BME280;6546;49.882;8.666;2023-05-23T01:38:31;99883.75;;;18.87;73.50
12963;BME280;6546;49.882;8.666;2023-05-23T01:40:57;99869.91;;;18.80;73.31
12963;BME280;6546;49.882;8.666;2023-05-23T01:43:24;99884.44;;;18.83;73.39
12963;BME280;6546;49.882;8.666;2023-05-23T01:45:53;99884.88;;;18.80;73.19
12963;BME280;6546;49.882;8.666;2023-05-23T01:48:21;99885.91;;;18.79;73.31
12963;BME280;6546;49.882;8.666;2023-05-23T01:50:49;99893.84;;;18.72;73.49
12963;BME280;6546;49.882;8.666;2023-05-23T01:53:19;99891.22;;;18.72;73.28
12963;BME280;6546;49.882;8.666;2023-05-23T01:55:47;99888.16;;;18.75;73.00
12963;BME280;6546;49.882;8.666;2023-05-23T01:58:13;99889.41;;;18.73;73.32
12963;BME280;6546;49.882;8.666;2023-05-23T02:00:40;99890.66;;;18.70;73.34
12963;BME280;6546;49.882;8.666;2023-05-23T02:03:08;99890.66;;;18.70;73.35
12963;BME280;6546;49.882;8.666;2023-05-23T02:05:35;99885.03;;;18.67;73.42
12963;BME280;6546;49.882;8.666;2023-05-23T02:08:02;99892.66;;;18.68;72.95
12963;BME280;6546;49.882;8.666;2023-05-23T02:10:28;99894.56;;;18.61;73.45
12963;BME280;6546;49.882;8.666;2023-05-23T02:12:55;99904.91;;;18.56;73.58
12963;BME280;6546;49.882;8.666;2023-05-23T02:15:22;99902.50;;;18.55;73.54
12963;BME280;6546;49.882;8.666;2023-05-23T02:17:48;99899.66;;;18.56;73.29
12963;BME280;6546;49.882;8.666;2023-05-23T02:20:17;99905.13;;;18.55;73.45
12963;BME280;6546;49.882;8.666;2023-05-23T02:22:44;99911.03;;;18.50;73.43
12963;BME280;6546;49.882;8.666;2023-05-23T02:25:10;99911.41;;;18.54;73.31
12963;BME280;6546;49.882;8.666;2023-05-23T02:27:37;99916.41;;;18.55;73.23
12963;BME280;6546;49.882;8.666;2023-05-23T02:30:05;99920.63;;;18.56;73.39
12963;BME280;6546;49.882;8.666;2023-05-23T02:32:31;99923.47;;;18.55;72.92
12963;BME280;6546;49.882;8.666;2023-05-23T02:34:58;99926.03;;;18.61;72.74
12963;BME280;6546;49.882;8.666;2023-05-23T02:37:26;99919.69;;;18.51;72.63
12963;BME280;6546;49.882;8.666;2023-05-23T02:39:52;99923.72;;;18.47;72.03
12963;BME280;6546;49.882;8.666;2023-05-23T02:42:19;99925.59;;;18.40;71.99
12963;BME280;6546;49.882;8.666;2023-05-23T02:44:45;99932.72;;;18.32;71.76
12963;BME280;6546;49.882;8.666;2023-05-23T02:47:12;99936.38;;;18.31;71.46
12963;BME280;6546;49.882;8.666;2023-05-23T02:49:38;99936.16;;;18.33;71.36
12963;BME280;6546;49.882;8.666;2023-05-23T02:52:05;99933.38;;;18.28;71.51
12963;BME280;6546;49.882;8.666;2023-05-23T02:54:33;99941.78;;;18.36;70.86
12963;BME280;6546;49.882;8.666;2023-05-23T02:56:59;99940.97;;;18.36;71.00
12963;BME280;6546;49.882;8.666;2023-05-23T02:59:26;99942.94;;;18.41;70.76
12963;BME280;6546;49.882;8.666;2023-05-23T03:01:53;99941.84;;;18.48;70.91
12963;BME280;6546;49.882;8.666;2023-05-23T03:04:19;99942.50;;;18.50;70.82
12963;BME280;6546;49.882;8.666;2023-05-23T03:06:46;99947.75;;;18.44;70.15
12963;BME280;6546;49.882;8.666;2023-05-23T03:09:14;99944.47;;;18.48;70.59
12963;BME280;6546;49.882;8.666;2023-05-23T03:11:42;99945.56;;;18.41;70.88
12963;BME280;6546;49.882;8.666;2023-05-23T03:14:08;99943.91;;;18.46;70.62
12963;BME280;6546;49.882;8.666;2023-05-23T03:16:35;99947.75;;;18.44;70.79
12963;BME280;6546;49.882;8.666;2023-05-23T03:19:01;99962.84;;;18.48;70.35
12963;BME280;6546;49.882;8.666;2023-05-23T03:21:28;99956.25;;;18.39;70.53
12963;BME280;6546;49.882;8.666;2023-05-23T03:23:56;99957.88;;;18.40;70.14
12963;BME280;6546;49.882;8.666;2023-05-23T03:26:22;99959.31;;;18.36;70.15
12963;BME280;6546;49.882;8.666;2023-05-23T03:28:50;99951.88;;;18.33;70.36
12963;BME280;6546;49.882;8.666;2023-05-23T03:31:17;99961.94;;;18.36;69.99
12963;BME280;6546;49.882;8.666;2023-05-23T03:33:44;99961.94;;;18.36;70.03
12963;BME280;6546;49.882;8.666;2023-05-23T03:36:10;99959.13;;;18.38;69.67
12963;BME280;6546;49.882;8.666;2023-05-23T03:38:37;99967.03;;;18.31;69.56
12963;BME280;6546;49.882;8.666;2023-05-23T03:41:03;99962.81;;;18.30;69.39
12963;BME280;6546;49.882;8.666;2023-05-23T03:43:30;99961.63;;;18.26;69.74
12963;BME280;6546;49.882;8.666;2023-05-23T03:45:58;99958.56;;;18.29;69.25
12963;BME280;6546;49.882;8.666;2023-05-23T03:48:24;99962.38;;;18.33;68.70
12963;BME280;6546;49.882;8.666;2023-05-23T03:50:51;99961.19;;;18.29;68.97
12963;BME280;6546;49.882;8.666;2023-05-23T03:53:17;99963.97;;;18.34;67.93
12963;BME280;6546;49.882;8.666;2023-05-23T03:55:44;99966.22;;;18.30;68.58
12963;BME280;6546;49.882;8.666;2023-05-23T03:58:10;99953.59;;;18.21;68.10
12963;BME280;6546;49.882;8.666;2023-05-23T04:00:37;99979.09;;;18.32;68.11
12963;BME280;6546;49.882;8.666;2023-05-23T04:03:05;99984.19;;;18.27;68.30
12963;BME280;6546;49.882;8.666;2023-05-23T04:05:32;99973.72;;;18.27;67.81
12963;BME280;6546;49.882;8.666;2023-05-23T04:07:59;99998.78;;;18.16;67.92
12963;BME280;6546;49.882;8.666;2023-05-23T04:10:26;100000.91;;;18.01;68.00
12963;BME280;6546;49.882;8.666;2023-05-23T04:12:52;100002.84;;;17.81;67.67
12963;BME280;6546;49.882;8.666;2023-05-23T04:15:21;100001.88;;;17.75;67.64
12963;BME280;6546;49.882;8.666;2023-05-23T04:17:47;100011.38;;;17.70;67.10
12963;BME280;6546;49.882;8.666;2023-05-23T04:20:17;100014.25;;;17.55;66.78
12963;BME280;6546;49.882;8.666;2023-05-23T04:22:43;100015.72;;;17.38;66.23
12963;BME280;6546;49.882;8.666;2023-05-23T04:25:10;100019.78;;;17.27;66.58
12963;BME280;6546;49.882;8.666;2023-05-23T04:27:36;100007.50;;;17.28;66.65
12963;BME280;6546;49.882;8.666;2023-05-23T04:30:06;100019.91;;;17.46;66.43
12963;BME280;6546;49.882;8.666;2023-05-23T04:32:33;100019.53;;;17.42;66.14
12963;BME280;6546;49.882;8.666;2023-05-23T04:35:00;100026.81;;;17.27;66.66
12963;BME280;6546;49.882;8.666;2023-05-23T04:37:29;100030.66;;;17.31;66.61
12963;BME280;6546;49.882;8.666;2023-05-23T04:39:57;100026.59;;;17.35;66.99
12963;BME280;6546;49.882;8.666;2023-05-23T04:42:24;100025.38;;;17.44;66.75
12963;BME280;6546;49.882;8.666;2023-05-23T04:44:51;100028.56;;;17.46;66.38
12963;BME280;6546;49.882;8.666;2023-05-23T04:47:17;100034.19;;;17.56;66.49
12963;BME280;6546;49.882;8.666;2023-05-23T04:49:44;100034.75;;;17.65;66.00
12963;BME280;6546;49.882;8.666;2023-05-23T04:52:10;100040.31;;;17.81;65.45
12963;BME280;6546;49.882;8.666;2023-05-23T04:54:38;100038.03;;;17.98;65.69
12963;BME280;6546;49.882;8.666;2023-05-23T04:57:09;100031.13;;;18.04;64.40
12963;BME280;6546;49.882;8.666;2023-05-23T04:59:36;100038.50;;;17.82;64.57
12963;BME280;6546;49.882;8.666;2023-05-23T05:02:04;100046.91;;;17.91;64.55
12963;BME280;6546;49.882;8.666;2023-05-23T05:04:31;100051.00;;;17.87;64.46
12963;BME280;6546;49.882;8.666;2023-05-23T05:06:57;100038.47;;;17.89;64.54
12963;BME280;6546;49.882;8.666;2023-05-23T05:09:24;100049.72;;;17.96;64.27
12963;BME280;6546;49.882;8.666;2023-05-23T05:11:52;100050.50;;;18.03;63.62
12963;BME280;6546;49.882;8.666;2023-05-23T05:14:19;100051.59;;;18.20;63.73
12963;BME280;6546;49.882;8.666;2023-05-23T05:16:45;100060.22;;;18.27;64.01
12963;BME280;6546;49.882;8.666;2023-05-23T05:19:12;100049.88;;;18.32;63.36
12963;BME280;6546;49.882;8.666;2023-05-23T05:21:39;100059.63;;;18.25;63.54
12963;BME280;6546;49.882;8.666;2023-05-23T05:24:06;100062.28;;;18.18;62.86
12963;BME280;6546;49.882;8.666;2023-05-23T05:26:33;100068.16;;;18.14;62.93
12963;BME280;6546;49.882;8.666;2023-05-23T05:29:02;100068.22;;;18.01;62.98
12963;BME280;6546;49.882;8.666;2023-05-23T05:31:28;100077.06;;;18.06;63.34
12963;BME280;6546;49.882;8.666;2023-05-23T05:33:55;100074.59;;;18.18;62.85
12963;BME280;6546;49.882;8.666;2023-05-23T05:36:21;100072.16;;;18.16;62.75
12963;BME280;6546;49.882;8.666;2023-05-23T05:38:48;100076.97;;;18.19;63.43
12963;BME280;6546;49.882;8.666;2023-05-23T05:41:15;100074.59;;;18.18;62.72
12963;BME280;6546;49.882;8.666;2023-05-23T05:43:41;100080.44;;;18.13;62.75
12963;BME280;6546;49.882;8.666;2023-05-23T05:46:10;100082.09;;;18.08;62.37
12963;BME280;6546;49.882;8.666;2023-05-23T05:48:37;100093.59;;;18.07;63.03
12963;BME280;6546;49.882;8.666;2023-05-23T05:51:03;100089.97;;;18.08;63.15
12963;BME280;6546;49.882;8.666;2023-05-23T05:53:30;100089.78;;;18.09;63.63
12963;BME280;6546;49.882;8.666;2023-05-23T05:55:56;100092.81;;;18.00;62.94
12963;BME280;6546;49.882;8.666;2023-05-23T05:58:23;100097.66;;;18.03;62.83
12963;BME280;6546;49.882;8.666;2023-05-23T06:00:49;100097.41;;;18.11;62.96
12963;BME280;6546;49.882;8.666;2023-05-23T06:03:19;100099.78;;;18.19;63.12
12963;BME280;6546;49.882;8.666;2023-05-23T06:05:46;100106.44;;;18.21;63.13
12963;BME280;6546;49.882;8.666;2023-05-23T06:08:12;100107.78;;;18.30;63.06
12963;BME280;6546;49.882;8.666;2023-05-23T06:10:39;100104.69;;;18.40;62.12
12963;BME280;6546;49.882;8.666;2023-05-23T06:13:05;100102.88;;;18.41;62.10
12963;BME280;6546;49.882;8.666;2023-05-23T06:15:32;100106.88;;;18.43;61.78
12963;BME280;6546;49.882;8.666;2023-05-23T06:17:58;100110.94;;;18.39;62.56
12963;BME280;6546;49.882;8.666;2023-05-23T06:20:26;100112.97;;;18.37;62.67
12963;BME280;6546;49.882;8.666;2023-05-23T06:22:53;100117.78;;;18.09;61.35
12963;BME280;6546;49.882;8.666;2023-05-23T06:25:19;100121.09;;;17.91;61.48
12963;BME280;6546;49.882;8.666;2023-05-23T06:27:46;100118.47;;;17.91;62.09
12963;BME280;6546;49.882;8.666;2023-05-23T06:30:13;100122.09;;;17.90;61.10
12963;BME280;6546;49.882;8.666;2023-05-23T06:32:40;100120.69;;;17.88;60.68
12963;BME280;6546;49.882;8.666;2023-05-23T06:35:07;100119.44;;;17.97;60.63
12963;BME280;6546;49.882;8.666;2023-05-23T06:37:35;100120.28;;;17.91;60.23
12963;BME280;6546;49.882;8.666;2023-05-23T06:40:02;100123.31;;;17.88;60.16
12963;BME280;6546;49.882;8.666;2023-05-23T06:42:29;100127.53;;;17.89;60.33
12963;BME280;6546;49.882;8.666;2023-05-23T06:44:56;100140.06;;;17.87;60.30
12963;BME280;6546;49.882;8.666;2023-05-23T06:47:22;100127.53;;;17.89;60.57
12963;BME280;6546;49.882;8.666;2023-05-23T06:49:49;100142.81;;;17.98;60.83
12963;BME280;6546;49.882;8.666;2023-05-23T06:52:15;100141.19;;;18.04;60.71
12963;BME280;6546;49.882;8.666;2023-05-23T06:54:43;100131.78;;;17.90;59.78
12963;BME280;6546;49.882;8.666;2023-05-23T06:57:10;100137.66;;;17.78;60.55
12963;BME280;6546;49.882;8.666;2023-05-23T06:59:36;100138.50;;;17.72;60.76
12963;BME280;6546;49.882;8.666;2023-05-23T07:02:03;100140.28;;;17.72;61.00
12963;BME280;6546;49.882;8.666;2023-05-23T07:04:30;100141.09;;;17.79;60.80
12963;BME280;6546;49.882;8.666;2023-05-23T07:06:56;100137.59;;;17.92;60.34
12963;BME280;6546;49.882;8.666;2023-05-23T07:09:23;100153.31;;;17.98;60.02
12963;BME280;6546;49.882;8.666;2023-05-23T07:11:51;100137.16;;;18.01;59.88
12963;BME280;6546;49.882;8.666;2023-05-23T07:14:17;100151.66;;;18.04;60.13
12963;BME280;6546;49.882;8.666;2023-05-23T07:16:45;100149.47;;;18.01;60.20
12963;BME280;6546;49.882;8.666;2023-05-23T07:19:12;100149.63;;;18.12;59.77
12963;BME280;6546;49.882;8.666;2023-05-23T07:21:39;100145.75;;;18.21;59.25
12963;BME280;6546;49.882;8.666;2023-05-23T07:24:05;100148.94;;;18.23;58.48
12963;BME280;6546;49.882;8.666;2023-05-23T07:26:32;100152.69;;;18.41;59.65
12963;BME280;6546;49.882;8.666;2023-05-23T07:29:00;100155.66;;;18.57;58.39
12963;BME280;6546;49.882;8.666;2023-05-23T07:31:26;100153.03;;;18.57;57.42
12963;BME280;6546;49.882;8.666;2023-05-23T07:33:53;100160.06;;;18.63;57.21
12963;BME280;6546;49.882;8.666;2023-05-23T07:36:19;100161.41;;;18.72;57.20
12963;BME280;6546;49.882;8.666;2023-05-23T07:38:46;100155.28;;;18.78;56.96
12963;BME280;6546;49.882;8.666;2023-05-23T07:41:13;100153.81;;;18.89;56.50
12963;BME280;6546;49.882;8.666;2023-05-23T07:43:39;100151.66;;;19.04;55.79
12963;BME280;6546;49.882;8.666;2023-05-23T07:46:07;100136.31;;;19.51;56.06
12963;BME280;6546;49.882;8.666;2023-05-23T07:48:34;100117.56;;;20.13;55.32
12963;BME280;6546;49.882;8.666;2023-05-23T07:51:00;100120.84;;;20.68;53.75
12963;BME280;6546;49.882;8.666;2023-05-23T07:53:27;100121.72;;;21.15;51.74
12963;BME280;6546;49.882;8.666;2023-05-23T07:55:53;100125.81;;;21.46;51.57
12963;BME280;6546;49.882;8.666;2023-05-23T07:58:20;100146.16;;;21.74;49.92
12963;BME280;6546;49.882;8.666;2023-05-23T08:00:47;100140.44;;;21.77;49.61
12963;BME280;6546;49.882;8.666;2023-05-23T08:03:15;100151.56;;;21.67;49.53
12963;BME280;6546;49.882;8.666;2023-05-23T08:05:43;100154.09;;;21.39;49.42
12963;BME280;6546;49.882;8.666;2023-05-23T08:08:09;100158.31;;;20.93;49.84
12963;BME280;6546;49.882;8.666;2023-05-23T08:10:36;100154.03;;;20.69;50.69
12963;BME280;6546;49.882;8.666;2023-05-23T08:13:04;100149.19;;;20.55;51.83
12963;BME280;6546;49.882;8.666;2023-05-23T08:15:31;100156.59;;;20.46;51.89
12963;BME280;6546;49.882;8.666;2023-05-23T08:17:57;100155.03;;;20.27;51.96
12963;BME280;6546;49.882;8.666;2023-05-23T08:20:26;100154.28;;;20.20;52.60
12963;BME280;6546;49.882;8.666;2023-05-23T08:22:57;100157.03;;;19.95;52.96
12963;BME280;6546;49.882;8.666;2023-05-23T08:25:23;100158.44;;;19.79;53.76
12963;BME280;6546;49.882;8.666;2023-05-23T08:27:50;100163.38;;;19.69;53.87
12963;BME280;6546;49.882;8.666;2023-05-23T08:30:17;100160.56;;;19.71;54.49
12963;BME280;6546;49.882;8.666;2023-05-23T08:32:47;100154.75;;;19.99;54.42
12963;BME280;6546;49.882;8.666;2023-05-23T08:35:14;100156.66;;;19.91;53.97
12963;BME280;6546;49.882;8.666;2023-05-23T08:37:42;100167.66;;;20.00;55.13
12963;BME280;6546;49.882;8.666;2023-05-23T08:40:13;100163.22;;;20.19;53.89
12963;BME280;6546;49.882;8.666;2023-05-23T08:42:39;100146.47;;;20.13;53.01
12963;BME280;6546;49.882;8.666;2023-05-23T08:45:07;100150.06;;;20.49;52.13
12963;BME280;6546;49.882;8.666;2023-05-23T08:47:35;100154.78;;;21.00;52.09
12963;BME280;6546;49.882;8.666;2023-05-23T08:50:05;100157.75;;;21.50;50.33
12963;BME280;6546;49.882;8.666;2023-05-23T08:52:32;100165.88;;;21.71;48.90
12963;BME280;6546;49.882;8.666;2023-05-23T08:55:02;100158.28;;;21.86;48.52
12963;BME280;6546;49.882;8.666;2023-05-23T08:57:30;100157.94;;;21.94;48.87
12963;BME280;6546;49.882;8.666;2023-05-23T08:59:56;100162.19;;;21.84;49.84
12963;BME280;6546;49.882;8.666;2023-05-23T09:02:24;100166.66;;;21.83;49.88
12963;BME280;6546;49.882;8.666;2023-05-23T09:04:51;100174.56;;;21.83;49.33
12963;BME280;6546;49.882;8.666;2023-05-23T09:07:18;100172.81;;;22.01;49.97
12963;BME280;6546;49.882;8.666;2023-05-23T09:09:45;100166.25;;;22.15;48.71
12963;BME280;6546;49.882;8.666;2023-05-23T09:12:13;100174.34;;;22.25;50.07
12963;BME280;6546;49.882;8.666;2023-05-23T09:14:41;100171.03;;;22.29;48.39
12963;BME280;6546;49.882;8.666;2023-05-23T09:17:15;100178.28;;;22.22;48.14
12963;BME280;6546;49.882;8.666;2023-05-23T09:19:43;100171.38;;;22.21;48.31
12963;BME280;6546;49.882;8.666;2023-05-23T09:22:11;100170.84;;;22.08;47.02
12963;BME280;6546;49.882;8.666;2023-05-23T09:24:38;100178.13;;;21.66;46.93
12963;BME280;6546;49.882;8.666;2023-05-23T09:27:06;100167.28;;;21.51;49.18
12963;BME280;6546;49.882;8.666;2023-05-23T09:29:36;100175.41;;;21.37;49.53
12963;BME280;6546;49.882;8.666;2023-05-23T09:32:09;100178.75;;;21.21;49.99
12963;BME280;6546;49.882;8.666;2023-05-23T09:34:39;100175.31;;;21.09;50.57
12963;BME280;6546;49.882;8.666;2023-05-23T09:37:06;100178.38;;;21.18;50.54
12963;BME280;6546;49.882;8.666;2023-05-23T09:39:36;100167.75;;;21.24;50.61
12963;BME280;6546;49.882;8.666;2023-05-23T09:42:03;100170.88;;;20.91;50.21
12963;BME280;6546;49.882;8.666;2023-05-23T09:44:30;100171.91;;;20.90;51.37
12963;BME280;6546;49.882;8.666;2023-05-23T09:46:58;100166.78;;;20.84;50.91
12963;BME280;6546;49.882;8.666;2023-05-23T09:49:25;100169.69;;;20.64;51.24
12963;BME280;6546;49.882;8.666;2023-05-23T09:51:59;100164.38;;;20.53;52.14
12963;BME280;6546;49.882;8.666;2023-05-23T09:54:26;100169.63;;;20.41;52.12
12963;BME280;6546;49.882;8.666;2023-05-23T09:56:53;100174.09;;;20.04;52.00
12963;BME280;6546;49.882;8.666;2023-05-23T09:59:22;100178.84;;;19.77;53.09
12963;BME280;6546;49.882;8.666;2023-05-23T10:01:50;100178.13;;;19.70;53.80
12963;BME280;6546;49.882;8.666;2023-05-23T10:04:20;100181.78;;;19.87;54.90
12963;BME280;6546;49.882;8.666;2023-05-23T10:06:49;100184.84;;;20.03;54.78
12963;BME280;6546;49.882;8.666;2023-05-23T10:09:18;100188.09;;;20.16;54.04
12963;BME280;6546;49.882;8.666;2023-05-23T10:12:28;100178.84;;;20.32;54.00
12963;BME280;6546;49.882;8.666;2023-05-23T10:15:03;100187.59;;;20.44;52.79
12963;BME280;6546;49.882;8.666;2023-05-23T10:17:36;100188.69;;;20.18;53.05
12963;BME280;6546;49.882;8.666;2023-05-23T10:20:09;100190.31;;;20.19;53.05
12963;BME280;6546;49.882;8.666;2023-05-23T10:22:37;100191.56;;;20.35;52.91
12963;BME280;6546;49.882;8.666;2023-05-23T10:25:05;100190.47;;;20.54;52.76
12963;BME280;6546;49.882;8.666;2023-05-23T10:27:32;100185.59;;;20.69;52.64
12963;BME280;6546;49.882;8.666;2023-05-23T10:29:59;100192.75;;;20.80;52.00
12963;BME280;6546;49.882;8.666;2023-05-23T10:32:26;100187.16;;;21.00;51.55
12963;BME280;6546;49.882;8.666;2023-05-23T10:34:55;100191.09;;;21.21;51.41
12963;BME280;6546;49.882;8.666;2023-05-23T10:37:32;100191.28;;;21.08;49.74
12963;BME280;6546;49.882;8.666;2023-05-23T10:40:06;100197.34;;;20.97;49.43
12963;BME280;6546;49.882;8.666;2023-05-23T10:42:41;100188.34;;;20.74;48.76
12963;BME280;6546;49.882;8.666;2023-05-23T10:45:14;100186.81;;;20.55;50.25
12963;BME280;6546;49.882;8.666;2023-05-23T10:47:41;100190.50;;;20.66;50.29
12963;BME280;6546;49.882;8.666;2023-05-23T10:50:11;100187.47;;;20.80;51.04
12963;BME280;6546;49.882;8.666;2023-05-23T10:52:40;100185.31;;;20.89;50.97
12963;BME280;6546;49.882;8.666;2023-05-23T10:55:12;100187.22;;;20.82;51.28
12963;BME280;6546;49.882;8.666;2023-05-23T10:57:38;100189.44;;;20.55;51.80
12963;BME280;6546;49.882;8.666;2023-05-23T11:00:12;100197.97;;;20.39;53.30
12963;BME280;6546;49.882;8.666;2023-05-23T11:02:46;100199.44;;;20.35;53.36
12963;BME280;6546;49.882;8.666;2023-05-23T11:05:19;100189.59;;;20.30;53.10
12963;BME280;6546;49.882;8.666;2023-05-23T11:08:05;100196.94;;;20.40;53.20
12963;BME280;6546;49.882;8.666;2023-05-23T11:10:32;100200.91;;;20.31;52.27
12963;BME280;6546;49.882;8.666;2023-05-23T11:13:05;100204.72;;;20.35;52.85
12963;BME280;6546;49.882;8.666;2023-05-23T11:15:40;100208.34;;;20.34;52.09
12963;BME280;6546;49.882;8.666;2023-05-23T11:18:09;100200.50;;;20.46;51.59
12963;BME280;6546;49.882;8.666;2023-05-23T11:20:37;100203.09;;;20.64;50.79
12963;BME280;6546;49.882;8.666;2023-05-23T11:23:06;100198.94;;;20.98;50.51
12963;BME280;6546;49.882;8.666;2023-05-23T11:25:40;100199.06;;;21.03;49.53
12963;BME280;6546;49.882;8.666;2023-05-23T11:28:08;100198.47;;;21.01;49.77
12963;BME280;6546;49.882;8.666;2023-05-23T11:30:35;100199.06;;;21.03;49.91
12963;BME280;6546;49.882;8.666;2023-05-23T11:33:05;100198.88;;;21.39;50.05
12963;BME280;6546;49.882;8.666;2023-05-23T11:35:34;100204.50;;;21.77;50.12
12963;BME280;6546;49.882;8.666;2023-05-23T11:38:01;100197.38;;;21.78;48.37
12963;BME280;6546;49.882;8.666;2023-05-23T11:40:31;100198.19;;;21.67;48.78
12963;BME280;6546;49.882;8.666;2023-05-23T11:42:58;100194.59;;;21.84;50.39
12963;BME280;6546;49.882;8.666;2023-05-23T11:45:26;100193.28;;;21.70;47.98
12963;BME280;6546;49.882;8.666;2023-05-23T11:47:53;100194.84;;;21.71;49.35
12963;BME280;6546;49.882;8.666;2023-05-23T11:50:20;100197.06;;;21.74;48.65
12963;BME280;6546;49.882;8.666;2023-05-23T11:52:49;100191.31;;;21.77;48.68
12963;BME280;6546;49.882;8.666;2023-05-23T11:55:17;100191.75;;;21.86;48.90
12963;BME280;6546;49.882;8.666;2023-05-23T11:57:46;100199.53;;;22.04;48.67
12963;BME280;6546;49.882;8.666;2023-05-23T12:00:14;100204.34;;;22.07;48.32
12963;BME280;6546;49.882;8.666;2023-05-23T12:02:41;100207.09;;;22.12;48.28
12963;BME280;6546;49.882;8.666;2023-05-23T12:05:09;100211.75;;;22.22;48.32
12963;BME280;6546;49.882;8.666;2023-05-23T12:07:39;100208.59;;;21.85;48.02
12963;BME280;6546;49.882;8.666;2023-05-23T12:10:07;100207.13;;;21.77;48.75
12963;BME280;6546;49.882;8.666;2023-05-23T12:12:34;100210.34;;;21.56;48.73
12963;BME280;6546;49.882;8.666;2023-05-23T12:15:04;100207.84;;;21.38;48.98
12963;BME280;6546;49.882;8.666;2023-05-23T12:17:31;100206.53;;;21.06;50.51
12963;BME280;6546;49.882;8.666;2023-05-23T12:19:58;100205.91;;;20.92;51.13
12963;BME280;6546;49.882;8.666;2023-05-23T12:22:25;100212.16;;;21.09;50.81
12963;BME280;6546;49.882;8.666;2023-05-23T12:24:53;100206.78;;;20.74;51.24
12963;BME280;6546;49.882;8.666;2023-05-23T12:27:26;100216.56;;;20.56;51.34
12963;BME280;6546;49.882;8.666;2023-05-23T12:30:05;100210.19;;;20.63;52.07
12963;BME280;6546;49.882;8.666;2023-05-23T12:32:32;100208.00;;;20.60;51.09
12963;BME280;6546;49.882;8.666;2023-05-23T12:34:59;100210.47;;;20.85;52.30
12963;BME280;6546;49.882;8.666;2023-05-23T12:37:26;100206.97;;;21.03;51.41
12963;BME280;6546;49.882;8.666;2023-05-23T12:39:54;100207.47;;;20.81;51.54
12963;BME280;6546;49.882;8.666;2023-05-23T12:42:20;100208.19;;;20.77;50.91
12963;BME280;6546;49.882;8.666;2023-05-23T12:44:50;100209.84;;;20.71;49.91
12963;BME280;6546;49.882;8.666;2023-05-23T12:47:18;100205.50;;;20.65;50.51
12963;BME280;6546;49.882;8.666;2023-05-23T12:49:45;100212.81;;;20.63;49.62
12963;BME280;6546;49.882;8.666;2023-05-23T12:52:12;100210.03;;;20.58;50.38
12963;BME280;6546;49.882;8.666;2023-05-23T12:54:38;100214.16;;;20.84;51.11
12963;BME280;6546;49.882;8.666;2023-05-23T12:57:05;100212.19;;;20.79;51.62
12963;BME280;6546;49.882;8.666;2023-05-23T12:59:31;100213.16;;;20.97;51.27
12963;BME280;6546;49.882;8.666;2023-05-23T13:01:58;100205.78;;;21.28;50.31
12963;BME280;6546;49.882;8.666;2023-05-23T13:04:27;100205.91;;;21.45;49.37
12963;BME280;6546;49.882;8.666;2023-05-23T13:06:53;100207.03;;;21.26;49.95